createdAt,value
2019-02-07T00:00:52.165Z,27.90
2019-02-07T00:01:52.677Z,29.90
2019-02-07T00:02:53.092Z,30.40
2019-02-07T00:03:53.313Z,30.40
2019-02-07T00:04:53.616Z,29.70
2019-02-07T00:05:53.734Z,31.50
2019-02-07T00:06:54.670Z,29.40
2019-02-07T00:07:54.457Z,29.30
2019-02-07T00:08:54.566Z,29.20
2019-02-07T00:09:54.571Z,30.30
2019-02-07T00:10:54.899Z,28.30
2019-02-07T00:11:54.983Z,30.90
2019-02-07T00:12:55.366Z,30.70
2019-02-07T00:13:55.768Z,30.20
2019-02-07T00:14:56.099Z,31.10
2019-02-07T00:15:56.467Z,30.30
2019-02-07T00:16:56.334Z,30.10
2019-02-07T00:17:56.633Z,29.70
2019-02-07T00:18:56.942Z,30.10
2019-02-07T00:19:57.263Z,30.80
2019-02-07T00:20:57.681Z,29.40
2019-02-07T00:21:58.545Z,30.50
2019-02-07T00:22:58.390Z,31.50
2019-02-07T00:23:58.710Z,32.30
2019-02-07T00:24:59.673Z,31.30
2019-02-07T00:25:59.361Z,29.90
2019-02-07T00:26:59.779Z,29.20
2019-02-07T00:28:00.197Z,30.80
2019-02-07T00:29:01.349Z,32.60
2019-02-07T00:30:01.975Z,32.90
2019-02-07T00:31:01.576Z,31.50
2019-02-07T00:32:01.690Z,32.00
2019-02-07T00:33:01.586Z,30.30
2019-02-07T00:34:01.551Z,29.00
2019-02-07T00:35:01.861Z,30.90
2019-02-07T00:36:02.522Z,30.60
2019-02-07T00:37:03.454Z,30.60
2019-02-07T00:38:03.897Z,31.20
2019-02-07T00:39:04.516Z,33.20
2019-02-07T00:41:03.984Z,31.30
2019-02-07T00:42:05.044Z,30.30
2019-02-07T00:43:04.383Z,30.30
2019-02-07T00:45:04.830Z,30.80
2019-02-07T00:46:06.068Z,31.90
2019-02-07T00:47:06.288Z,29.70
2019-02-07T00:48:06.696Z,31.40
2019-02-07T00:49:06.917Z,30.90
2019-02-07T00:50:07.324Z,32.40
2019-02-07T00:51:07.534Z,31.40
2019-02-07T00:52:08.059Z,31.00
2019-02-07T00:53:07.918Z,30.00
2019-02-07T00:54:08.172Z,30.80
2019-02-07T00:55:08.297Z,31.30
2019-02-07T00:56:08.797Z,30.80
2019-02-07T00:57:09.017Z,29.70
2019-02-07T00:58:09.320Z,30.60
2019-02-07T00:59:09.538Z,31.60
2019-02-07T01:00:09.449Z,29.50
2019-02-07T01:01:09.854Z,30.50
2019-02-07T01:02:09.983Z,30.40
2019-02-07T01:03:09.664Z,30.00
2019-02-07T01:04:10.381Z,31.70
2019-02-07T01:05:10.617Z,29.90
2019-02-07T01:06:10.532Z,30.00
2019-02-07T01:07:10.889Z,30.50
2019-02-07T01:08:10.922Z,31.40
2019-02-07T01:09:10.917Z,30.50
2019-02-07T01:10:11.897Z,32.10
2019-02-07T01:11:11.365Z,31.10
2019-02-07T01:12:11.874Z,28.20
2019-02-07T01:13:11.677Z,30.70
2019-02-07T01:14:12.144Z,31.60
2019-02-07T01:15:12.880Z,30.70
2019-02-07T01:16:12.921Z,29.90
2019-02-07T01:17:12.780Z,30.10
2019-02-07T01:18:13.100Z,30.50
2019-02-07T01:19:13.524Z,30.20
2019-02-07T01:20:14.789Z,28.50
2019-02-07T01:21:14.137Z,30.20
2019-02-07T01:22:14.636Z,29.50
2019-02-07T01:23:14.980Z,29.30
2019-02-07T01:24:15.839Z,31.20
2019-02-07T01:25:16.560Z,30.30
2019-02-07T01:26:16.495Z,31.10
2019-02-07T01:27:16.434Z,29.90
2019-02-07T01:28:16.757Z,28.50
2019-02-07T01:29:17.196Z,29.20
2019-02-07T01:30:18.544Z,30.10
2019-02-07T01:31:18.311Z,31.30
2019-02-07T01:32:18.515Z,29.60
2019-02-07T01:33:18.421Z,30.30
2019-02-07T01:34:18.842Z,28.80
2019-02-07T01:35:19.597Z,29.30
2019-02-07T01:36:19.706Z,28.60
2019-02-07T01:37:19.812Z,28.30
2019-02-07T01:38:20.340Z,29.40
2019-02-07T01:39:19.827Z,31.00
2019-02-07T01:40:20.039Z,29.60
2019-02-07T01:41:20.554Z,29.50
2019-02-07T01:42:21.485Z,30.20
2019-02-07T01:43:22.045Z,28.80
2019-02-07T01:44:22.115Z,29.10
2019-02-07T01:46:22.227Z,28.70
2019-02-07T01:47:22.132Z,31.10
2019-02-07T01:48:22.661Z,30.00
2019-02-07T01:49:22.682Z,29.90
2019-02-07T01:50:22.669Z,29.10
2019-02-07T01:51:22.875Z,28.90
2019-02-07T01:52:23.150Z,30.40
2019-02-07T01:53:23.298Z,29.80
2019-02-07T01:54:23.825Z,28.70
2019-02-07T01:55:23.621Z,28.70
2019-02-07T01:56:23.826Z,29.60
2019-02-07T01:57:24.246Z,29.00
2019-02-07T01:58:24.661Z,29.20
2019-02-07T01:59:24.877Z,31.00
2019-02-07T02:00:24.878Z,29.50
2019-02-07T02:01:24.891Z,29.50
2019-02-07T02:02:25.199Z,28.20
2019-02-07T02:03:25.470Z,30.70
2019-02-07T02:04:25.539Z,29.50
2019-02-07T02:05:25.527Z,28.70
2019-02-07T02:06:25.691Z,31.70
2019-02-07T02:07:25.712Z,29.80
2019-02-07T02:08:25.762Z,31.30
2019-02-07T02:09:25.889Z,30.10
2019-02-07T02:10:25.814Z,30.10
2019-02-07T02:11:26.352Z,28.40
2019-02-07T02:12:26.899Z,31.10
2019-02-07T02:13:26.310Z,30.60
2019-02-07T02:14:27.335Z,30.00
2019-02-07T02:15:26.673Z,29.60
2019-02-07T02:16:26.987Z,29.80
2019-02-07T02:17:27.419Z,29.00
2019-02-07T02:18:28.162Z,29.20
2019-02-07T02:19:28.702Z,29.70
2019-02-07T02:20:28.037Z,30.70
2019-02-07T02:21:28.361Z,29.10
2019-02-07T02:22:28.831Z,29.00
2019-02-07T02:23:29.174Z,29.60
2019-02-07T02:24:29.583Z,29.30
2019-02-07T02:25:30.135Z,28.70
2019-02-07T02:26:30.375Z,30.10
2019-02-07T02:27:30.278Z,29.10
2019-02-07T02:28:30.897Z,29.00
2019-02-07T02:29:30.773Z,29.60
2019-02-07T02:30:31.137Z,29.60
2019-02-07T02:31:31.296Z,29.50
2019-02-07T02:32:31.713Z,30.30
2019-02-07T02:34:32.112Z,29.40
2019-02-07T02:35:32.460Z,28.40
2019-02-07T02:36:32.851Z,29.50
2019-02-07T02:37:33.670Z,30.00
2019-02-07T02:38:33.487Z,29.80
2019-02-07T02:39:33.943Z,29.70
2019-02-07T02:40:34.366Z,29.90
2019-02-07T02:41:34.234Z,29.10
2019-02-07T02:42:34.988Z,28.80
2019-02-07T02:43:35.500Z,29.30
2019-02-07T02:44:36.233Z,28.10
2019-02-07T02:45:37.935Z,28.80
2019-02-07T02:46:36.957Z,30.20
2019-02-07T02:49:38.006Z,29.20
2019-02-07T02:50:37.889Z,29.20
2019-02-07T02:51:38.421Z,28.90
2019-02-07T02:52:40.294Z,28.60
2019-02-07T02:53:38.536Z,29.30
2019-02-07T02:54:38.747Z,27.80
2019-02-07T02:55:39.069Z,30.80
2019-02-07T02:56:38.664Z,28.60
2019-02-07T02:57:39.396Z,30.30
2019-02-07T02:58:39.593Z,28.20
2019-02-07T02:59:39.518Z,29.80
2019-02-07T03:00:40.146Z,31.50
2019-02-07T03:01:40.330Z,30.10
2019-02-07T03:02:40.572Z,30.50
2019-02-07T03:03:40.771Z,28.30
2019-02-07T03:04:40.917Z,28.90
2019-02-07T03:05:41.303Z,29.10
2019-02-07T03:06:41.371Z,27.70
2019-02-07T03:07:41.442Z,28.30
2019-02-07T03:08:41.983Z,30.10
2019-02-07T03:09:41.987Z,29.50
2019-02-07T03:10:41.974Z,28.30
2019-02-07T03:11:42.656Z,28.20
2019-02-07T03:12:42.601Z,29.30
2019-02-07T03:13:43.888Z,28.30
2019-02-07T03:14:43.342Z,28.10
2019-02-07T03:15:49.646Z,31.00
2019-02-07T03:16:43.977Z,29.70
2019-02-07T03:17:44.837Z,28.90
2019-02-07T03:18:44.814Z,29.00
2019-02-07T03:19:44.805Z,29.80
2019-02-07T03:20:45.187Z,28.50
2019-02-07T03:21:45.668Z,28.10
2019-02-07T03:22:45.992Z,29.60
2019-02-07T03:23:46.234Z,29.30
2019-02-07T03:24:46.828Z,29.20
2019-02-07T03:25:46.612Z,30.00
2019-02-07T03:26:46.871Z,28.80
2019-02-07T03:27:47.349Z,29.10
2019-02-07T03:28:48.213Z,29.30
2019-02-07T03:29:48.596Z,27.90
2019-02-07T03:30:48.461Z,27.60
2019-02-07T03:31:48.589Z,29.10
2019-02-07T03:32:49.027Z,28.60
2019-02-07T03:33:49.102Z,28.40
2019-02-07T03:34:49.335Z,27.40
2019-02-07T03:36:49.922Z,29.20
2019-02-07T03:37:50.804Z,29.20
2019-02-07T03:38:51.527Z,28.40
2019-02-07T03:39:51.442Z,29.60
2019-02-07T03:40:51.444Z,29.00
2019-02-07T03:41:52.066Z,28.90
2019-02-07T03:42:52.278Z,27.80
2019-02-07T03:43:52.484Z,29.50
2019-02-07T03:44:52.595Z,28.30
2019-02-07T03:46:02.292Z,27.30
2019-02-07T03:46:52.724Z,29.10
2019-02-07T03:47:52.918Z,27.60
2019-02-07T03:48:52.924Z,29.10
2019-02-07T03:49:53.340Z,29.40
2019-02-07T03:50:53.658Z,30.30
2019-02-07T03:51:53.777Z,29.50
2019-02-07T03:52:54.179Z,30.00
2019-02-07T03:53:54.593Z,29.80
2019-02-07T03:54:54.566Z,28.60
2019-02-07T03:55:54.709Z,29.80
2019-02-07T03:57:55.030Z,29.80
2019-02-07T03:58:55.337Z,29.80
2019-02-07T03:59:55.389Z,28.40
2019-02-07T04:00:55.978Z,30.40
2019-02-07T04:01:56.076Z,30.60
2019-02-07T04:02:56.255Z,30.50
2019-02-07T04:03:56.275Z,30.20
2019-02-07T04:04:56.730Z,30.40
2019-02-07T04:05:56.791Z,28.40
2019-02-07T04:06:56.800Z,28.70
2019-02-07T04:07:57.353Z,29.10
2019-02-07T04:08:57.215Z,28.30
2019-02-07T04:09:57.526Z,29.40
2019-02-07T04:10:57.631Z,30.20
2019-02-07T04:11:58.229Z,27.70
2019-02-07T04:12:58.344Z,29.00
2019-02-07T04:13:58.415Z,28.80
2019-02-07T04:14:58.738Z,27.70
2019-02-07T04:15:59.312Z,28.40
2019-02-07T04:16:59.742Z,29.40
2019-02-07T04:17:59.777Z,28.10
2019-02-07T04:19:00.116Z,30.00
2019-02-07T04:20:00.229Z,29.20
2019-02-07T04:21:00.496Z,27.80
2019-02-07T04:22:00.927Z,28.20
2019-02-07T04:23:01.551Z,28.70
2019-02-07T04:24:01.554Z,28.30
2019-02-07T04:25:01.762Z,28.30
2019-02-07T04:26:01.968Z,27.30
2019-02-07T04:27:02.288Z,28.50
2019-02-07T04:28:02.505Z,28.50
2019-02-07T04:29:02.908Z,28.70
2019-02-07T04:30:03.127Z,30.10
2019-02-07T04:31:03.450Z,28.40
2019-02-07T04:32:03.244Z,28.50
2019-02-07T04:33:03.826Z,27.30
2019-02-07T04:34:04.080Z,28.10
2019-02-07T04:35:04.054Z,28.40
2019-02-07T04:36:04.041Z,27.90
2019-02-07T04:37:04.921Z,28.80
2019-02-07T04:38:04.483Z,29.90
2019-02-07T04:39:05.129Z,28.10
2019-02-07T04:40:05.348Z,27.00
2019-02-07T04:41:05.861Z,28.00
2019-02-07T04:42:06.074Z,29.10
2019-02-07T04:43:06.804Z,27.20
2019-02-07T04:44:07.226Z,26.90
2019-02-07T04:45:07.218Z,26.90
2019-02-07T04:46:07.233Z,28.50
2019-02-07T04:47:07.641Z,29.50
2019-02-07T04:48:07.851Z,27.70
2019-02-07T04:49:08.478Z,28.00
2019-02-07T04:50:08.377Z,29.20
2019-02-07T04:51:08.731Z,29.60
2019-02-07T04:52:08.595Z,30.00
2019-02-07T04:53:09.015Z,28.10
2019-02-07T04:54:08.964Z,28.10
2019-02-07T04:55:09.531Z,29.00
2019-02-07T04:56:09.234Z,29.10
2019-02-07T04:57:09.466Z,28.40
2019-02-07T04:58:09.965Z,30.00
2019-02-07T04:59:09.875Z,28.60
2019-02-07T05:00:10.585Z,29.80
2019-02-07T05:01:10.716Z,29.80
2019-02-07T05:02:10.929Z,29.20
2019-02-07T05:03:10.824Z,29.90
2019-02-07T05:04:11.266Z,28.10
2019-02-07T05:05:11.498Z,28.10
2019-02-07T05:06:11.523Z,29.60
2019-02-07T05:07:11.513Z,26.80
2019-02-07T05:08:11.871Z,28.40
2019-02-07T05:09:12.705Z,28.50
2019-02-07T05:10:12.195Z,28.30
2019-02-07T05:11:12.473Z,27.90
2019-02-07T05:12:12.419Z,28.30
2019-02-07T05:13:12.886Z,28.50
2019-02-07T05:14:13.567Z,29.00
2019-02-07T05:15:13.536Z,28.80
2019-02-07T05:16:14.077Z,28.40
2019-02-07T05:17:14.500Z,27.30
2019-02-07T05:18:14.461Z,28.70
2019-02-07T05:19:15.343Z,27.60
2019-02-07T05:20:16.455Z,27.30
2019-02-07T05:21:15.404Z,29.40
2019-02-07T05:22:15.929Z,29.40
2019-02-07T05:23:16.290Z,27.20
2019-02-07T05:24:16.247Z,28.90
2019-02-07T05:25:17.306Z,27.40
2019-02-07T05:26:16.872Z,28.20
2019-02-07T05:27:17.323Z,29.00
2019-02-07T05:28:17.494Z,27.30
2019-02-07T05:29:17.651Z,28.50
2019-02-07T05:30:18.404Z,28.10
2019-02-07T05:31:18.477Z,27.80
2019-02-07T05:32:18.691Z,29.60
2019-02-07T05:33:19.100Z,27.60
2019-02-07T05:34:19.202Z,29.10
2019-02-07T05:35:19.511Z,31.20
2019-02-07T05:36:19.490Z,29.50
2019-02-07T05:37:20.059Z,29.00
2019-02-07T05:38:21.282Z,30.10
2019-02-07T05:39:21.100Z,28.00
2019-02-07T05:40:21.622Z,29.80
2019-02-07T05:41:21.820Z,28.40
2019-02-07T05:42:22.720Z,29.50
2019-02-07T05:43:22.547Z,29.00
2019-02-07T05:44:22.722Z,29.90
2019-02-07T05:45:22.864Z,29.20
2019-02-07T05:46:22.900Z,28.90
2019-02-07T05:47:22.886Z,29.20
2019-02-07T05:48:23.100Z,30.50
2019-02-07T05:49:22.995Z,27.90
2019-02-07T05:50:23.081Z,26.80
2019-02-07T05:51:23.516Z,27.80
2019-02-07T05:52:23.833Z,27.60
2019-02-07T05:54:24.376Z,28.00
2019-02-07T05:55:24.890Z,29.00
2019-02-07T05:56:25.090Z,28.10
2019-02-07T05:57:25.362Z,29.20
2019-02-07T05:58:25.742Z,29.20
2019-02-07T05:59:25.841Z,30.90
2019-02-07T06:00:25.823Z,27.90
2019-02-07T06:01:26.221Z,27.50
2019-02-07T06:02:26.885Z,28.80
2019-02-07T06:03:26.359Z,29.00
2019-02-07T06:04:26.600Z,28.60
2019-02-07T06:05:26.796Z,30.30
2019-02-07T06:06:27.101Z,29.90
2019-02-07T06:07:27.718Z,28.50
2019-02-07T06:08:27.695Z,29.70
2019-02-07T06:09:28.255Z,29.80
2019-02-07T06:10:28.513Z,27.30
2019-02-07T06:11:28.547Z,28.20
2019-02-07T06:12:28.729Z,27.40
2019-02-07T06:13:28.881Z,28.70
2019-02-07T06:14:29.271Z,28.00
2019-02-07T06:15:29.297Z,29.10
2019-02-07T06:16:29.596Z,29.30
2019-02-07T06:17:29.590Z,30.60
2019-02-07T06:18:29.628Z,30.50
2019-02-07T06:19:29.947Z,30.30
2019-02-07T06:20:29.910Z,29.80
2019-02-07T06:21:30.320Z,29.10
2019-02-07T06:22:30.331Z,28.70
2019-02-07T06:23:30.763Z,28.10
2019-02-07T06:24:30.903Z,30.10
2019-02-07T06:25:30.895Z,28.80
2019-02-07T06:26:30.826Z,30.60
2019-02-07T06:27:31.401Z,29.00
2019-02-07T06:28:31.537Z,29.70
2019-02-07T06:29:31.632Z,30.10
2019-02-07T06:30:32.133Z,29.10
2019-02-07T06:31:32.439Z,28.30
2019-02-07T06:32:32.472Z,30.40
2019-02-07T06:33:32.908Z,29.30
2019-02-07T06:34:33.165Z,29.70
2019-02-07T06:35:33.414Z,28.60
2019-02-07T06:36:33.440Z,29.50
2019-02-07T06:37:33.935Z,28.70
2019-02-07T06:38:33.835Z,27.90
2019-02-07T06:39:34.038Z,30.60
2019-02-07T06:40:34.487Z,30.40
2019-02-07T06:41:34.597Z,29.80
2019-02-07T06:42:34.570Z,28.60
2019-02-07T06:43:34.622Z,30.30
2019-02-07T06:44:34.591Z,28.60
2019-02-07T06:45:36.263Z,29.00
2019-02-07T06:46:36.375Z,29.00
2019-02-07T06:47:36.478Z,29.60
2019-02-07T06:48:36.588Z,28.30
2019-02-07T06:49:36.803Z,29.00
2019-02-07T06:50:37.010Z,30.30
2019-02-07T06:51:36.924Z,29.30
2019-02-07T06:52:37.233Z,29.40
2019-02-07T06:53:37.243Z,28.50
2019-02-07T06:54:37.344Z,30.40
2019-02-07T06:55:37.453Z,28.40
2019-02-07T06:56:37.683Z,29.30
2019-02-07T06:57:37.673Z,28.40
2019-02-07T06:58:38.561Z,30.50
2019-02-07T06:59:38.725Z,30.20
2019-02-07T07:00:38.512Z,29.60
2019-02-07T07:01:47.809Z,31.30
2019-02-07T07:02:38.828Z,30.70
2019-02-07T07:03:38.634Z,30.90
2019-02-07T07:04:38.947Z,28.30
2019-02-07T07:05:39.257Z,29.40
2019-02-07T07:06:39.805Z,29.50
2019-02-07T07:07:39.984Z,27.80
2019-02-07T07:08:40.405Z,29.20
2019-02-07T07:09:40.761Z,28.60
2019-02-07T07:10:40.743Z,30.10
2019-02-07T07:11:41.154Z,29.30
2019-02-07T07:12:40.800Z,29.40
2019-02-07T07:13:41.273Z,30.30
2019-02-07T07:14:41.260Z,29.10
2019-02-07T07:15:41.243Z,29.60
2019-02-07T07:16:41.518Z,29.00
2019-02-07T07:17:41.797Z,30.20
2019-02-07T07:18:41.853Z,30.20
2019-02-07T07:19:45.040Z,29.30
2019-02-07T07:20:42.312Z,29.50
2019-02-07T07:21:42.264Z,30.20
2019-02-07T07:22:42.516Z,30.80
2019-02-07T07:23:42.683Z,28.90
2019-02-07T07:24:43.170Z,28.90
2019-02-07T07:25:43.703Z,31.40
2019-02-07T07:26:43.770Z,31.20
2019-02-07T07:27:44.180Z,30.70
2019-02-07T07:28:44.170Z,29.30
2019-02-07T07:29:44.948Z,29.80
2019-02-07T07:30:45.366Z,30.70
2019-02-07T07:31:45.168Z,29.90
2019-02-07T07:32:45.670Z,31.10
2019-02-07T07:33:45.256Z,31.50
2019-02-07T07:35:46.213Z,31.60
2019-02-07T07:36:45.682Z,31.10
2019-02-07T07:37:46.093Z,30.70
2019-02-07T07:38:46.339Z,31.60
2019-02-07T07:39:46.616Z,30.50
2019-02-07T07:40:47.262Z,31.60
2019-02-07T07:41:47.339Z,31.40
2019-02-07T07:42:47.355Z,30.10
2019-02-07T07:43:47.476Z,31.00
2019-02-07T07:44:47.430Z,32.40
2019-02-07T07:45:47.973Z,31.10
2019-02-07T07:46:48.538Z,30.20
2019-02-07T07:47:48.486Z,32.10
2019-02-07T07:48:49.197Z,31.10
2019-02-07T07:49:49.485Z,31.20
2019-02-07T07:50:49.797Z,32.20
2019-02-07T07:51:58.452Z,30.90
2019-02-07T07:52:52.923Z,31.80
2019-02-07T07:53:51.151Z,30.90
2019-02-07T07:54:51.668Z,33.70
2019-02-07T07:55:51.770Z,32.00
2019-02-07T07:56:51.981Z,31.30
2019-02-07T07:57:52.000Z,32.40
2019-02-07T07:58:52.404Z,31.00
2019-02-07T07:59:52.523Z,31.60
2019-02-07T08:00:52.767Z,31.90
2019-02-07T08:01:53.434Z,32.40
2019-02-07T08:02:53.471Z,31.60
2019-02-07T08:03:53.575Z,34.10
2019-02-07T08:04:54.091Z,32.00
2019-02-07T08:05:53.802Z,32.50
2019-02-07T08:06:54.507Z,31.50
2019-02-07T08:07:54.631Z,32.90
2019-02-07T08:08:54.717Z,33.50
2019-02-07T08:09:55.800Z,32.60
2019-02-07T08:10:55.401Z,33.50
2019-02-07T08:11:55.465Z,33.10
2019-02-07T08:12:55.802Z,32.20
2019-02-07T08:13:55.778Z,33.20
2019-02-07T08:14:55.822Z,35.30
2019-02-07T08:15:55.781Z,32.80
2019-02-07T08:16:56.035Z,33.60
2019-02-07T08:17:56.057Z,31.10
2019-02-07T08:18:56.147Z,32.00
2019-02-07T08:19:56.845Z,31.40
2019-02-07T08:20:56.404Z,32.40
2019-02-07T08:21:56.567Z,33.40
2019-02-07T08:22:56.524Z,33.40
2019-02-07T08:23:56.633Z,33.10
2019-02-07T08:24:56.637Z,33.50
2019-02-07T08:25:56.649Z,34.30
2019-02-07T08:26:56.843Z,34.40
2019-02-07T08:27:57.367Z,33.70
2019-02-07T08:28:57.821Z,34.50
2019-02-07T08:29:57.797Z,34.60
2019-02-07T08:30:58.317Z,33.20
2019-02-07T08:31:59.402Z,32.40
2019-02-07T08:33:05.084Z,31.90
2019-02-07T08:33:58.488Z,34.30
2019-02-07T08:34:58.989Z,33.40
2019-02-07T08:35:59.291Z,32.80
2019-02-07T08:36:59.311Z,32.30
2019-02-07T08:37:59.302Z,30.70
2019-02-07T08:39:00.098Z,31.40
2019-02-07T08:40:00.437Z,30.70
2019-02-07T08:41:00.406Z,32.10
2019-02-07T08:42:00.776Z,31.60
2019-02-07T08:43:01.190Z,31.00
2019-02-07T08:44:01.003Z,32.10
2019-02-07T08:45:00.686Z,32.60
2019-02-07T08:46:01.363Z,31.90
2019-02-07T08:47:01.488Z,33.30
2019-02-07T08:48:03.956Z,32.20
2019-02-07T08:49:02.854Z,33.20
2019-02-07T08:50:03.386Z,32.80
2019-02-07T08:51:03.393Z,32.10
2019-02-07T08:52:03.914Z,33.60
2019-02-07T08:53:03.114Z,34.50
2019-02-07T08:54:03.719Z,34.00
2019-02-07T08:55:03.290Z,33.70
2019-02-07T08:56:03.937Z,32.10
2019-02-07T08:57:03.844Z,32.20
2019-02-07T08:58:04.428Z,33.40
2019-02-07T08:59:04.531Z,34.20
2019-02-07T09:00:04.616Z,34.00
2019-02-07T09:01:06.226Z,34.40
2019-02-07T09:02:06.128Z,33.60
2019-02-07T09:03:06.447Z,35.00
2019-02-07T09:04:07.070Z,35.10
2019-02-07T09:05:07.071Z,33.00
2019-02-07T09:06:07.076Z,34.10
2019-02-07T09:07:07.491Z,36.50
2019-02-07T09:08:07.874Z,35.70
2019-02-07T09:09:08.337Z,37.50
2019-02-07T09:10:08.126Z,38.00
2019-02-07T09:11:08.335Z,35.60
2019-02-07T09:12:08.752Z,35.10
2019-02-07T09:13:08.964Z,36.40
2019-02-07T09:14:09.068Z,37.20
2019-02-07T09:15:09.193Z,35.90
2019-02-07T09:16:09.696Z,35.50
2019-02-07T09:17:10.022Z,35.00
2019-02-07T09:18:13.216Z,35.20
2019-02-07T09:19:10.473Z,34.60
2019-02-07T09:20:10.634Z,34.90
2019-02-07T09:21:10.637Z,33.90
2019-02-07T09:22:11.278Z,34.00
2019-02-07T09:23:10.968Z,33.90
2019-02-07T09:24:11.164Z,33.60
2019-02-07T09:25:11.674Z,34.40
2019-02-07T09:26:11.755Z,35.30
2019-02-07T09:27:12.208Z,35.20
2019-02-07T09:28:12.889Z,35.00
2019-02-07T09:29:12.664Z,35.40
2019-02-07T09:30:12.635Z,34.80
2019-02-07T09:31:12.870Z,35.20
2019-02-07T09:32:13.055Z,35.50
2019-02-07T09:33:13.599Z,35.00
2019-02-07T09:34:13.432Z,34.40
2019-02-07T09:35:14.239Z,33.20
2019-02-07T09:36:13.764Z,33.60
2019-02-07T09:37:14.213Z,33.20
2019-02-07T09:38:14.603Z,32.90
2019-02-07T09:39:14.863Z,32.40
2019-02-07T09:40:15.911Z,34.40
2019-02-07T09:41:15.195Z,35.00
2019-02-07T09:42:16.017Z,35.80
2019-02-07T09:43:15.830Z,35.90
2019-02-07T09:44:15.890Z,36.50
2019-02-07T09:45:16.487Z,36.40
2019-02-07T09:46:16.148Z,35.50
2019-02-07T09:47:16.218Z,36.60
2019-02-07T09:48:21.627Z,35.70
2019-02-07T09:49:16.738Z,34.60
2019-02-07T09:50:18.013Z,34.80
2019-02-07T09:51:17.376Z,36.40
2019-02-07T09:52:17.682Z,35.70
2019-02-07T09:53:24.083Z,37.10
2019-02-07T09:54:18.238Z,33.90
2019-02-07T09:55:18.354Z,34.60
2019-02-07T09:56:18.549Z,35.10
2019-02-07T09:57:18.660Z,35.10
2019-02-07T09:58:19.089Z,33.50
2019-02-07T09:59:19.064Z,32.40
2019-02-07T10:00:19.406Z,32.90
2019-02-07T10:01:19.387Z,33.20
2019-02-07T10:02:19.544Z,35.30
2019-02-07T10:03:19.842Z,35.70
2019-02-07T10:04:21.389Z,34.90
2019-02-07T10:05:21.187Z,36.40
2019-02-07T10:06:21.796Z,34.70
2019-02-07T10:07:21.916Z,33.60
2019-02-07T10:08:22.023Z,33.70
2019-02-07T10:09:22.505Z,34.10
2019-02-07T10:10:22.752Z,31.70
2019-02-07T10:11:22.943Z,34.20
2019-02-07T10:12:23.078Z,37.50
2019-02-07T10:13:23.597Z,34.20
2019-02-07T10:14:23.595Z,34.80
2019-02-07T10:15:23.956Z,34.70
2019-02-07T10:16:23.925Z,34.30
2019-02-07T10:17:24.331Z,34.30
2019-02-07T10:18:32.802Z,36.60
2019-02-07T10:19:24.547Z,38.20
2019-02-07T10:20:25.273Z,39.10
2019-02-07T10:21:25.613Z,36.10
2019-02-07T10:22:25.699Z,36.10
2019-02-07T10:23:25.967Z,35.80
2019-02-07T10:24:26.203Z,37.10
2019-02-07T10:25:26.343Z,36.40
2019-02-07T10:26:26.537Z,35.00
2019-02-07T10:27:26.864Z,37.40
2019-02-07T10:28:27.680Z,35.80
2019-02-07T10:29:27.141Z,36.90
2019-02-07T10:30:27.142Z,35.50
2019-02-07T10:31:27.368Z,39.30
2019-02-07T10:32:27.378Z,35.00
2019-02-07T10:33:27.437Z,36.90
2019-02-07T10:34:28.467Z,34.60
2019-02-07T10:35:28.398Z,35.60
2019-02-07T10:36:28.392Z,35.00
2019-02-07T10:37:29.310Z,35.40
2019-02-07T10:38:28.975Z,34.90
2019-02-07T10:39:29.496Z,0.00
2019-02-07T10:40:29.426Z,36.20
2019-02-07T10:41:31.882Z,35.80
2019-02-07T10:42:29.829Z,37.20
2019-02-07T10:43:30.341Z,38.30
2019-02-07T10:44:30.653Z,35.60
2019-02-07T10:45:30.897Z,35.60
2019-02-07T10:46:31.613Z,35.50
2019-02-07T10:47:31.602Z,36.20
2019-02-07T10:48:31.693Z,35.40
2019-02-07T10:49:31.683Z,36.20
2019-02-07T10:50:32.475Z,36.00
2019-02-07T10:51:32.362Z,36.30
2019-02-07T10:52:32.753Z,36.00
2019-02-07T10:53:32.714Z,35.80
2019-02-07T10:54:32.770Z,34.90
2019-02-07T10:55:33.810Z,37.60
2019-02-07T10:56:33.368Z,38.00
2019-02-07T10:57:33.915Z,38.40
2019-02-07T10:58:34.025Z,36.10
2019-02-07T10:59:34.333Z,35.30
2019-02-07T11:00:34.337Z,35.90
2019-02-07T11:01:34.808Z,36.40
2019-02-07T11:02:36.303Z,37.50
2019-02-07T11:03:36.716Z,35.70
2019-02-07T11:04:36.826Z,34.80
2019-02-07T11:05:36.704Z,35.30
2019-02-07T11:06:37.164Z,34.50
2019-02-07T11:07:37.560Z,35.00
2019-02-07T11:08:37.887Z,35.60
2019-02-07T11:09:38.057Z,34.80
2019-02-07T11:10:37.924Z,34.70
2019-02-07T11:11:38.310Z,37.50
2019-02-07T11:12:38.618Z,37.60
2019-02-07T11:13:39.340Z,35.50
2019-02-07T11:14:39.141Z,35.80
2019-02-07T11:15:39.665Z,36.70
2019-02-07T11:16:39.675Z,34.90
2019-02-07T11:17:39.871Z,34.60
2019-02-07T11:18:40.295Z,33.70
2019-02-07T11:19:40.416Z,36.60
2019-02-07T11:20:40.615Z,34.10
2019-02-07T11:21:40.916Z,33.10
2019-02-07T11:22:40.950Z,35.80
2019-02-07T11:23:40.905Z,33.70
2019-02-07T11:24:41.214Z,33.80
2019-02-07T11:25:41.293Z,35.70
2019-02-07T11:26:41.742Z,35.20
2019-02-07T11:27:42.515Z,37.60
2019-02-07T11:28:42.095Z,36.20
2019-02-07T11:29:42.559Z,34.70
2019-02-07T11:30:42.625Z,35.40
2019-02-07T11:31:43.022Z,34.20
2019-02-07T11:32:43.152Z,33.90
2019-02-07T11:33:43.153Z,33.40
2019-02-07T11:34:45.970Z,34.20
2019-02-07T11:35:43.636Z,35.70
2019-02-07T11:36:53.522Z,34.00
2019-02-07T11:37:43.864Z,33.00
2019-02-07T11:38:44.104Z,36.30
2019-02-07T11:39:44.625Z,34.70
2019-02-07T11:40:44.796Z,34.40
2019-02-07T11:41:45.876Z,33.10
2019-02-07T11:42:45.745Z,33.50
2019-02-07T11:43:45.481Z,33.80
2019-02-07T11:44:45.358Z,33.20
2019-02-07T11:45:45.459Z,33.00
2019-02-07T11:46:48.712Z,33.90
2019-02-07T11:47:46.123Z,34.40
2019-02-07T11:48:46.086Z,33.80
2019-02-07T11:49:46.404Z,32.30
2019-02-07T11:50:46.982Z,33.20
2019-02-07T11:51:46.995Z,34.20
2019-02-07T11:52:47.184Z,34.40
2019-02-07T11:53:47.252Z,34.40
2019-02-07T11:54:47.765Z,33.90
2019-02-07T11:55:48.086Z,33.20
2019-02-07T11:56:48.188Z,35.00
2019-02-07T11:57:48.533Z,34.30
2019-02-07T11:58:48.812Z,34.00
2019-02-07T11:59:49.779Z,33.10
2019-02-07T12:00:49.968Z,32.40
2019-02-07T12:01:50.412Z,32.40
2019-02-07T12:02:50.532Z,32.00
2019-02-07T12:03:50.829Z,31.50
2019-02-07T12:04:51.765Z,31.10
2019-02-07T12:05:51.661Z,32.40
2019-02-07T12:06:51.977Z,33.90
2019-02-07T12:07:52.094Z,33.70
2019-02-07T12:08:52.211Z,32.70
2019-02-07T12:09:52.476Z,34.20
2019-02-07T12:10:52.556Z,33.40
2019-02-07T12:11:52.932Z,34.80
2019-02-07T12:12:53.457Z,33.50
2019-02-07T12:13:53.915Z,33.30
2019-02-07T12:14:54.382Z,33.00
2019-02-07T12:15:54.915Z,31.40
2019-02-07T12:16:55.217Z,32.30
2019-02-07T12:17:55.334Z,31.20
2019-02-07T12:18:55.492Z,31.40
2019-02-07T12:19:55.747Z,30.90
2019-02-07T12:20:55.974Z,32.80
2019-02-07T12:21:56.904Z,31.30
2019-02-07T12:22:56.032Z,31.30
2019-02-07T12:23:56.843Z,32.70
2019-02-07T12:24:57.009Z,32.60
2019-02-07T12:25:56.914Z,32.60
2019-02-07T12:26:57.331Z,33.60
2019-02-07T12:27:57.310Z,34.00
2019-02-07T12:28:57.410Z,32.40
2019-02-07T12:29:57.543Z,34.10
2019-02-07T12:31:57.528Z,33.10
2019-02-07T12:32:57.639Z,33.50
2019-02-07T12:33:58.138Z,34.80
2019-02-07T12:34:58.046Z,34.60
2019-02-07T12:35:58.275Z,34.00
2019-02-07T12:36:58.375Z,35.80
2019-02-07T12:37:58.521Z,34.00
2019-02-07T12:38:58.840Z,34.50
2019-02-07T12:39:59.055Z,34.70
2019-02-07T12:40:59.366Z,34.30
2019-02-07T12:41:59.225Z,35.40
2019-02-07T12:42:59.330Z,34.90
2019-02-07T12:44:00.309Z,34.50
2019-02-07T12:45:00.430Z,34.30
2019-02-07T12:46:00.173Z,34.60
2019-02-07T12:47:00.282Z,33.70
2019-02-07T12:48:00.383Z,34.40
2019-02-07T12:49:00.429Z,33.50
2019-02-07T12:50:00.763Z,33.70
2019-02-07T12:51:01.580Z,32.80
2019-02-07T12:52:00.863Z,33.50
2019-02-07T12:53:01.596Z,33.70
2019-02-07T12:54:01.804Z,32.70
2019-02-07T12:55:02.031Z,34.50
2019-02-07T12:56:02.844Z,32.40
2019-02-07T12:57:02.143Z,33.30
2019-02-07T12:58:02.757Z,34.10
2019-02-07T12:59:02.767Z,33.80
2019-02-07T13:00:03.287Z,32.90
2019-02-07T13:01:02.247Z,34.00
2019-02-07T13:02:02.738Z,34.00
2019-02-07T13:03:03.252Z,33.40
2019-02-07T13:04:04.448Z,34.50
2019-02-07T13:05:03.981Z,34.90
2019-02-07T13:06:04.702Z,32.60
2019-02-07T13:07:06.813Z,33.80